sensor_id;sensor_type;location;lat;lon;timestamp;temperature;humidity
30594;DHT22;33199;47.590;8.300;2023-06-14T00:01:04;23.30;46.70
30594;DHT22;33199;47.590;8.300;2023-06-14T00:03:31;23.30;46.70
30594;DHT22;33199;47.590;8.300;2023-06-14T00:05:57;23.30;46.70
30594;DHT22;33199;47.590;8.300;2023-06-14T00:08:22;23.30;46.80
30594;DHT22;33199;47.590;8.300;2023-06-14T00:10:50;23.30;46.90
30594;DHT22;33199;47.590;8.300;2023-06-14T00:13:15;23.30;46.90
30594;DHT22;33199;47.590;8.300;2023-06-14T00:15:41;23.30;46.90
30594;DHT22;33199;47.590;8.300;2023-06-14T00:18:08;23.30;46.90
30594;DHT22;33199;47.590;8.300;2023-06-14T00:20:35;23.30;46.90
30594;DHT22;33199;47.590;8.300;2023-06-14T00:23:00;23.30;46.90
30594;DHT22;33199;47.590;8.300;2023-06-14T00:25:26;23.30;46.90
30594;DHT22;33199;47.590;8.300;2023-06-14T00:27:52;23.30;47.00
30594;DHT22;33199;47.590;8.300;2023-06-14T00:30:18;23.30;47.00
30594;DHT22;33199;47.590;8.300;2023-06-14T00:32:44;23.30;47.10
30594;DHT22;33199;47.590;8.300;2023-06-14T00:35:09;23.30;47.10
30594;DHT22;33199;47.590;8.300;2023-06-14T00:37:35;23.20;47.00
30594;DHT22;33199;47.590;8.300;2023-06-14T00:40:00;23.20;47.10
30594;DHT22;33199;47.590;8.300;2023-06-14T00:42:26;23.20;47.10
30594;DHT22;33199;47.590;8.300;2023-06-14T00:44:52;23.20;47.30
30594;DHT22;33199;47.590;8.300;2023-06-14T00:47:18;23.20;47.30
30594;DHT22;33199;47.590;8.300;2023-06-14T00:49:47;23.20;47.40
30594;DHT22;33199;47.590;8.300;2023-06-14T00:52:16;23.20;47.60
30594;DHT22;33199;47.590;8.300;2023-06-14T00:54:42;23.20;47.70
30594;DHT22;33199;47.590;8.300;2023-06-14T00:57:08;23.20;47.90
30594;DHT22;33199;47.590;8.300;2023-06-14T00:59:35;23.20;48.10
30594;DHT22;33199;47.590;8.300;2023-06-14T01:02:03;23.20;48.10
30594;DHT22;33199;47.590;8.300;2023-06-14T01:04:29;23.10;47.90
30594;DHT22;33199;47.590;8.300;2023-06-14T01:07:10;23.20;48.10
30594;DHT22;33199;47.590;8.300;2023-06-14T01:09:55;23.10;48.00
30594;DHT22;33199;47.590;8.300;2023-06-14T01:12:37;23.10;48.00
30594;DHT22;33199;47.590;8.300;2023-06-14T01:15:04;23.10;48.10
30594;DHT22;33199;47.590;8.300;2023-06-14T01:17:30;23.10;48.30
30594;DHT22;33199;47.590;8.300;2023-06-14T01:19:58;23.10;48.20
30594;DHT22;33199;47.590;8.300;2023-06-14T01:22:25;23.10;48.40
30594;DHT22;33199;47.590;8.300;2023-06-14T01:24:51;23.10;48.40
30594;DHT22;33199;47.590;8.300;2023-06-14T01:27:23;23.10;48.40
30594;DHT22;33199;47.590;8.300;2023-06-14T01:29:52;23.10;48.40
30594;DHT22;33199;47.590;8.300;2023-06-14T01:32:23;23.10;48.50
30594;DHT22;33199;47.590;8.300;2023-06-14T01:34:48;23.10;48.50
30594;DHT22;33199;47.590;8.300;2023-06-14T01:37:14;23.10;48.60
30594;DHT22;33199;47.590;8.300;2023-06-14T01:39:41;23.10;48.50
30594;DHT22;33199;47.590;8.300;2023-06-14T01:42:07;23.10;48.70
30594;DHT22;33199;47.590;8.300;2023-06-14T01:44:33;23.10;48.80
30594;DHT22;33199;47.590;8.300;2023-06-14T01:46:58;23.10;48.60
30594;DHT22;33199;47.590;8.300;2023-06-14T01:49:25;23.00;48.80
30594;DHT22;33199;47.590;8.300;2023-06-14T01:51:51;23.10;48.80
30594;DHT22;33199;47.590;8.300;2023-06-14T01:54:16;23.00;48.80
30594;DHT22;33199;47.590;8.300;2023-06-14T01:56:42;23.00;48.60
30594;DHT22;33199;47.590;8.300;2023-06-14T01:59:07;23.00;48.60
30594;DHT22;33199;47.590;8.300;2023-06-14T02:01:33;23.00;48.60
30594;DHT22;33199;47.590;8.300;2023-06-14T02:03:59;23.00;48.70
30594;DHT22;33199;47.590;8.300;2023-06-14T02:06:26;23.00;48.70
30594;DHT22;33199;47.590;8.300;2023-06-14T02:08:51;23.00;48.70
30594;DHT22;33199;47.590;8.300;2023-06-14T02:11:17;23.00;48.70
30594;DHT22;33199;47.590;8.300;2023-06-14T02:13:42;23.00;48.80
30594;DHT22;33199;47.590;8.300;2023-06-14T02:16:11;23.00;48.80
30594;DHT22;33199;47.590;8.300;2023-06-14T02:18:36;23.00;49.00
30594;DHT22;33199;47.590;8.300;2023-06-14T02:21:02;22.90;48.60
30594;DHT22;33199;47.590;8.300;2023-06-14T02:23:27;23.00;48.90
30594;DHT22;33199;47.590;8.300;2023-06-14T02:25:53;22.90;48.50
30594;DHT22;33199;47.590;8.300;2023-06-14T02:28:18;22.90;48.90
30594;DHT22;33199;47.590;8.300;2023-06-14T02:30:44;22.90;48.90
30594;DHT22;33199;47.590;8.300;2023-06-14T02:33:09;22.90;48.70
30594;DHT22;33199;47.590;8.300;2023-06-14T02:35:38;22.90;48.90
30594;DHT22;33199;47.590;8.300;2023-06-14T02:38:03;22.90;48.90
30594;DHT22;33199;47.590;8.300;2023-06-14T02:40:29;22.90;49.00
30594;DHT22;33199;47.590;8.300;2023-06-14T02:42:54;22.90;49.10
30594;DHT22;33199;47.590;8.300;2023-06-14T02:45:20;22.90;49.00
30594;DHT22;33199;47.590;8.300;2023-06-14T02:47:46;22.90;49.30
30594;DHT22;33199;47.590;8.300;2023-06-14T02:50:11;22.90;49.00
30594;DHT22;33199;47.590;8.300;2023-06-14T02:52:37;22.90;49.10
30594;DHT22;33199;47.590;8.300;2023-06-14T02:55:03;22.90;49.00
30594;DHT22;33199;47.590;8.300;2023-06-14T02:57:29;22.80;49.10
30594;DHT22;33199;47.590;8.300;2023-06-14T02:59:54;22.80;49.10
30594;DHT22;33199;47.590;8.300;2023-06-14T03:02:20;22.80;49.00
30594;DHT22;33199;47.590;8.300;2023-06-14T03:04:46;22.90;49.10
30594;DHT22;33199;47.590;8.300;2023-06-14T03:07:12;22.80;49.20
30594;DHT22;33199;47.590;8.300;2023-06-14T03:09:38;22.80;49.30
30594;DHT22;33199;47.590;8.300;2023-06-14T03:12:04;22.80;49.20
30594;DHT22;33199;47.590;8.300;2023-06-14T03:14:30;22.80;49.40
30594;DHT22;33199;47.590;8.300;2023-06-14T03:16:56;22.70;49.20
30594;DHT22;33199;47.590;8.300;2023-06-14T03:19:24;22.80;49.20
30594;DHT22;33199;47.590;8.300;2023-06-14T03:21:51;22.80;49.20
30594;DHT22;33199;47.590;8.300;2023-06-14T03:24:17;22.70;49.10
30594;DHT22;33199;47.590;8.300;2023-06-14T03:26:43;22.70;49.10
30594;DHT22;33199;47.590;8.300;2023-06-14T03:29:08;22.70;49.20
30594;DHT22;33199;47.590;8.300;2023-06-14T03:31:34;22.70;49.20
30594;DHT22;33199;47.590;8.300;2023-06-14T03:34:00;22.70;49.10
30594;DHT22;33199;47.590;8.300;2023-06-14T03:36:26;22.70;49.10
30594;DHT22;33199;47.590;8.300;2023-06-14T03:38:54;22.70;49.00
30594;DHT22;33199;47.590;8.300;2023-06-14T03:41:20;22.70;49.20
30594;DHT22;33199;47.590;8.300;2023-06-14T03:43:47;22.70;49.10
30594;DHT22;33199;47.590;8.300;2023-06-14T03:46:13;22.70;49.20
30594;DHT22;33199;47.590;8.300;2023-06-14T03:48:38;22.70;49.20
30594;DHT22;33199;47.590;8.300;2023-06-14T03:51:04;22.70;49.10
30594;DHT22;33199;47.590;8.300;2023-06-14T03:53:30;22.60;49.20
30594;DHT22;33199;47.590;8.300;2023-06-14T03:55:56;22.70;49.20
30594;DHT22;33199;47.590;8.300;2023-06-14T03:58:22;22.60;49.10
30594;DHT22;33199;47.590;8.300;2023-06-14T04:00:48;22.60;49.30
30594;DHT22;33199;47.590;8.300;2023-06-14T04:03:13;22.60;49.20
30594;DHT22;33199;47.590;8.300;2023-06-14T04:05:40;22.60;49.30
30594;DHT22;33199;47.590;8.300;2023-06-14T04:08:07;22.60;49.10
30594;DHT22;33199;47.590;8.300;2023-06-14T04:10:34;22.60;49.90
30594;DHT22;33199;47.590;8.300;2023-06-14T04:13:00;22.60;49.20
30594;DHT22;33199;47.590;8.300;2023-06-14T04:15:25;22.60;49.30
30594;DHT22;33199;47.590;8.300;2023-06-14T04:17:53;22.60;49.20
30594;DHT22;33199;47.590;8.300;2023-06-14T04:20:22;22.50;49.20
30594;DHT22;33199;47.590;8.300;2023-06-14T04:22:49;22.50;49.00
30594;DHT22;33199;47.590;8.300;2023-06-14T04:25:15;22.50;49.10
30594;DHT22;33199;47.590;8.300;2023-06-14T04:27:40;22.50;49.40
30594;DHT22;33199;47.590;8.300;2023-06-14T04:30:07;22.50;49.20
30594;DHT22;33199;47.590;8.300;2023-06-14T04:32:32;22.50;49.10
30594;DHT22;33199;47.590;8.300;2023-06-14T04:35:07;22.50;49.20
30594;DHT22;33199;47.590;8.300;2023-06-14T04:37:32;22.50;49.20
30594;DHT22;33199;47.590;8.300;2023-06-14T04:39:58;22.50;49.20
30594;DHT22;33199;47.590;8.300;2023-06-14T04:42:23;22.50;49.10
30594;DHT22;33199;47.590;8.300;2023-06-14T04:44:51;22.50;49.20
30594;DHT22;33199;47.590;8.300;2023-06-14T04:47:17;22.50;49.20
30594;DHT22;33199;47.590;8.300;2023-06-14T04:49:43;22.40;49.40
30594;DHT22;33199;47.590;8.300;2023-06-14T04:52:08;22.40;49.30
30594;DHT22;33199;47.590;8.300;2023-06-14T04:54:36;22.40;49.20
30594;DHT22;33199;47.590;8.300;2023-06-14T04:57:03;22.40;49.40
30594;DHT22;33199;47.590;8.300;2023-06-14T04:59:29;22.40;49.30
30594;DHT22;33199;47.590;8.300;2023-06-14T05:01:58;22.40;49.30
30594;DHT22;33199;47.590;8.300;2023-06-14T05:04:25;22.40;49.30
30594;DHT22;33199;47.590;8.300;2023-06-14T05:06:52;22.40;49.40
30594;DHT22;33199;47.590;8.300;2023-06-14T05:09:19;22.40;49.30
30594;DHT22;33199;47.590;8.300;2023-06-14T05:11:45;22.40;49.30
30594;DHT22;33199;47.590;8.300;2023-06-14T05:14:11;22.30;46.50
30594;DHT22;33199;47.590;8.300;2023-06-14T05:16:36;22.20;42.90
30594;DHT22;33199;47.590;8.300;2023-06-14T05:19:02;21.90;41.20
30594;DHT22;33199;47.590;8.300;2023-06-14T05:21:29;21.60;40.60
30594;DHT22;33199;47.590;8.300;2023-06-14T05:23:55;21.30;41.00
30594;DHT22;33199;47.590;8.300;2023-06-14T05:26:21;21.10;41.60
30594;DHT22;33199;47.590;8.300;2023-06-14T05:28:48;20.90;42.60
30594;DHT22;33199;47.590;8.300;2023-06-14T05:31:15;20.80;43.50
30594;DHT22;33199;47.590;8.300;2023-06-14T05:33:40;20.80;43.10
30594;DHT22;33199;47.590;8.300;2023-06-14T05:36:06;20.70;42.60
30594;DHT22;33199;47.590;8.300;2023-06-14T05:38:31;20.60;42.30
30594;DHT22;33199;47.590;8.300;2023-06-14T05:40:57;20.40;43.80
30594;DHT22;33199;47.590;8.300;2023-06-14T05:43:22;20.20;43.20
30594;DHT22;33199;47.590;8.300;2023-06-14T05:45:48;20.10;43.30
30594;DHT22;33199;47.590;8.300;2023-06-14T05:48:13;20.00;43.80
30594;DHT22;33199;47.590;8.300;2023-06-14T05:50:38;19.90;44.10
30594;DHT22;33199;47.590;8.300;2023-06-14T05:53:04;19.90;44.40
30594;DHT22;33199;47.590;8.300;2023-06-14T05:55:29;19.90;44.20
30594;DHT22;33199;47.590;8.300;2023-06-14T05:57:55;19.80;44.20
30594;DHT22;33199;47.590;8.300;2023-06-14T06:00:20;19.60;44.40
30594;DHT22;33199;47.590;8.300;2023-06-14T06:02:46;19.60;44.70
30594;DHT22;33199;47.590;8.300;2023-06-14T06:05:12;19.60;44.70
30594;DHT22;33199;47.590;8.300;2023-06-14T06:07:38;19.60;44.70
30594;DHT22;33199;47.590;8.300;2023-06-14T06:10:05;19.60;44.90
30594;DHT22;33199;47.590;8.300;2023-06-14T06:12:31;19.50;44.60
30594;DHT22;33199;47.590;8.300;2023-06-14T06:14:58;19.50;44.80
30594;DHT22;33199;47.590;8.300;2023-06-14T06:17:24;19.50;44.70
30594;DHT22;33199;47.590;8.300;2023-06-14T06:19:50;19.50;44.60
30594;DHT22;33199;47.590;8.300;2023-06-14T06:22:15;19.50;45.20
30594;DHT22;33199;47.590;8.300;2023-06-14T06:24:41;19.50;44.70
30594;DHT22;33199;47.590;8.300;2023-06-14T06:27:06;19.40;44.60
30594;DHT22;33199;47.590;8.300;2023-06-14T06:29:33;19.50;44.60
30594;DHT22;33199;47.590;8.300;2023-06-14T06:31:59;19.50;45.20
30594;DHT22;33199;47.590;8.300;2023-06-14T06:34:24;19.50;44.60
30594;DHT22;33199;47.590;8.300;2023-06-14T06:36:51;19.60;44.40
30594;DHT22;33199;47.590;8.300;2023-06-14T06:39:16;19.60;44.40
30594;DHT22;33199;47.590;8.300;2023-06-14T06:41:42;19.60;44.20
30594;DHT22;33199;47.590;8.300;2023-06-14T06:44:07;19.60;44.10
30594;DHT22;33199;47.590;8.300;2023-06-14T06:46:33;19.60;44.30
30594;DHT22;33199;47.590;8.300;2023-06-14T06:48:59;19.60;44.30
30594;DHT22;33199;47.590;8.300;2023-06-14T06:51:25;19.60;44.00
30594;DHT22;33199;47.590;8.300;2023-06-14T06:53:54;19.60;44.00
30594;DHT22;33199;47.590;8.300;2023-06-14T06:56:20;19.60;44.10
30594;DHT22;33199;47.590;8.300;2023-06-14T06:58:46;19.60;44.60
30594;DHT22;33199;47.590;8.300;2023-06-14T07:01:11;19.60;44.20
30594;DHT22;33199;47.590;8.300;2023-06-14T07:03:37;19.70;44.00
30594;DHT22;33199;47.590;8.300;2023-06-14T07:06:02;19.70;44.30
30594;DHT22;33199;47.590;8.300;2023-06-14T07:08:28;19.70;44.30
30594;DHT22;33199;47.590;8.300;2023-06-14T07:10:53;19.70;44.30
30594;DHT22;33199;47.590;8.300;2023-06-14T07:13:19;19.80;43.80
30594;DHT22;33199;47.590;8.300;2023-06-14T07:15:44;19.80;43.90
30594;DHT22;33199;47.590;8.300;2023-06-14T07:18:10;19.90;44.50
30594;DHT22;33199;47.590;8.300;2023-06-14T07:20:35;19.90;45.00
30594;DHT22;33199;47.590;8.300;2023-06-14T07:23:03;20.00;44.70
30594;DHT22;33199;47.590;8.300;2023-06-14T07:25:29;20.00;44.90
30594;DHT22;33199;47.590;8.300;2023-06-14T07:27:54;20.00;45.50
30594;DHT22;33199;47.590;8.300;2023-06-14T07:30:20;20.00;45.70
30594;DHT22;33199;47.590;8.300;2023-06-14T07:32:46;20.10;45.90
30594;DHT22;33199;47.590;8.300;2023-06-14T07:35:11;20.10;46.20
30594;DHT22;33199;47.590;8.300;2023-06-14T07:37:37;20.20;46.20
30594;DHT22;33199;47.590;8.300;2023-06-14T07:40:02;20.20;46.20
30594;DHT22;33199;47.590;8.300;2023-06-14T07:42:33;20.20;46.10
30594;DHT22;33199;47.590;8.300;2023-06-14T07:44:59;20.20;46.20
30594;DHT22;33199;47.590;8.300;2023-06-14T07:47:24;20.20;46.10
30594;DHT22;33199;47.590;8.300;2023-06-14T07:49:50;20.20;46.10
30594;DHT22;33199;47.590;8.300;2023-06-14T07:52:16;20.30;46.00
30594;DHT22;33199;47.590;8.300;2023-06-14T07:54:41;20.30;46.00
30594;DHT22;33199;47.590;8.300;2023-06-14T07:57:07;20.30;46.10
30594;DHT22;33199;47.590;8.300;2023-06-14T07:59:32;20.30;45.90
30594;DHT22;33199;47.590;8.300;2023-06-14T08:01:58;20.30;45.70
30594;DHT22;33199;47.590;8.300;2023-06-14T08:04:23;20.30;45.50
30594;DHT22;33199;47.590;8.300;2023-06-14T08:06:50;20.40;45.70
30594;DHT22;33199;47.590;8.300;2023-06-14T08:09:15;20.40;45.50
30594;DHT22;33199;47.590;8.300;2023-06-14T08:11:41;20.40;45.50
30594;DHT22;33199;47.590;8.300;2023-06-14T08:14:07;20.40;45.70
30594;DHT22;33199;47.590;8.300;2023-06-14T08:16:33;20.40;45.80
30594;DHT22;33199;47.590;8.300;2023-06-14T08:18:58;20.50;45.90
30594;DHT22;33199;47.590;8.300;2023-06-14T08:21:24;20.50;45.70
30594;DHT22;33199;47.590;8.300;2023-06-14T08:23:54;20.50;45.80
30594;DHT22;33199;47.590;8.300;2023-06-14T08:26:20;20.50;46.00
30594;DHT22;33199;47.590;8.300;2023-06-14T08:28:46;20.50;45.90
30594;DHT22;33199;47.590;8.300;2023-06-14T08:31:11;20.50;46.00
30594;DHT22;33199;47.590;8.300;2023-06-14T08:33:38;20.50;46.00
30594;DHT22;33199;47.590;8.300;2023-06-14T08:36:04;20.50;46.00
30594;DHT22;33199;47.590;8.300;2023-06-14T08:38:30;20.50;46.10
30594;DHT22;33199;47.590;8.300;2023-06-14T08:40:57;20.60;46.20
30594;DHT22;33199;47.590;8.300;2023-06-14T08:43:22;20.50;46.10
30594;DHT22;33199;47.590;8.300;2023-06-14T08:45:48;20.60;46.20
30594;DHT22;33199;47.590;8.300;2023-06-14T08:48:15;20.60;46.20
30594;DHT22;33199;47.590;8.300;2023-06-14T08:50:42;20.60;46.20
30594;DHT22;33199;47.590;8.300;2023-06-14T08:53:08;20.60;46.20
30594;DHT22;33199;47.590;8.300;2023-06-14T08:55:37;20.60;46.30
30594;DHT22;33199;47.590;8.300;2023-06-14T08:58:04;20.60;46.30
30594;DHT22;33199;47.590;8.300;2023-06-14T09:00:30;20.60;46.30
30594;DHT22;33199;47.590;8.300;2023-06-14T09:02:56;20.60;46.30
30594;DHT22;33199;47.590;8.300;2023-06-14T09:05:27;20.60;46.30
30594;DHT22;33199;47.590;8.300;2023-06-14T09:07:53;20.70;46.30
30594;DHT22;33199;47.590;8.300;2023-06-14T09:10:20;20.70;46.90
30594;DHT22;33199;47.590;8.300;2023-06-14T09:12:46;20.70;46.40
30594;DHT22;33199;47.590;8.300;2023-06-14T09:15:12;20.70;46.50
30594;DHT22;33199;47.590;8.300;2023-06-14T09:17:39;20.70;46.40
30594;DHT22;33199;47.590;8.300;2023-06-14T09:20:05;20.70;46.50
30594;DHT22;33199;47.590;8.300;2023-06-14T09:22:32;20.70;46.50
30594;DHT22;33199;47.590;8.300;2023-06-14T09:24:57;20.80;46.50
30594;DHT22;33199;47.590;8.300;2023-06-14T09:27:24;20.70;46.40
30594;DHT22;33199;47.590;8.300;2023-06-14T09:29:50;20.80;46.50
30594;DHT22;33199;47.590;8.300;2023-06-14T09:32:15;20.80;46.50
30594;DHT22;33199;47.590;8.300;2023-06-14T09:34:41;20.80;46.50
30594;DHT22;33199;47.590;8.300;2023-06-14T09:37:06;20.80;46.60
30594;DHT22;33199;47.590;8.300;2023-06-14T09:39:32;20.80;46.60
30594;DHT22;33199;47.590;8.300;2023-06-14T09:41:57;20.80;46.50
30594;DHT22;33199;47.590;8.300;2023-06-14T09:44:23;20.80;46.60
30594;DHT22;33199;47.590;8.300;2023-06-14T09:46:53;20.80;46.60
30594;DHT22;33199;47.590;8.300;2023-06-14T09:49:20;20.80;46.60
30594;DHT22;33199;47.590;8.300;2023-06-14T09:51:46;20.80;46.70
30594;DHT22;33199;47.590;8.300;2023-06-14T09:54:16;20.80;46.70
30594;DHT22;33199;47.590;8.300;2023-06-14T09:56:42;20.80;46.70
30594;DHT22;33199;47.590;8.300;2023-06-14T09:59:09;20.80;46.70
30594;DHT22;33199;47.590;8.300;2023-06-14T10:01:35;20.80;46.70
30594;DHT22;33199;47.590;8.300;2023-06-14T10:04:02;20.80;46.80
30594;DHT22;33199;47.590;8.300;2023-06-14T10:06:28;20.80;46.70
30594;DHT22;33199;47.590;8.300;2023-06-14T10:08:56;20.90;46.80
30594;DHT22;33199;47.590;8.300;2023-06-14T10:11:21;20.90;46.80
30594;DHT22;33199;47.590;8.300;2023-06-14T10:13:47;20.80;46.70
30594;DHT22;33199;47.590;8.300;2023-06-14T10:16:17;20.90;46.80
30594;DHT22;33199;47.590;8.300;2023-06-14T10:18:48;20.90;46.70
30594;DHT22;33199;47.590;8.300;2023-06-14T10:24:00;20.90;46.80
30594;DHT22;33199;47.590;8.300;2023-06-14T10:26:27;20.90;46.80
30594;DHT22;33199;47.590;8.300;2023-06-14T10:29:08;20.90;46.80
30594;DHT22;33199;47.590;8.300;2023-06-14T10:31:41;20.90;46.80
30594;DHT22;33199;47.590;8.300;2023-06-14T10:34:07;20.90;46.80
30594;DHT22;33199;47.590;8.300;2023-06-14T10:36:33;20.90;46.70
30594;DHT22;33199;47.590;8.300;2023-06-14T10:39:08;20.90;46.60
30594;DHT22;33199;47.590;8.300;2023-06-14T10:41:37;21.00;46.70
30594;DHT22;33199;47.590;8.300;2023-06-14T10:44:10;21.00;46.70
30594;DHT22;33199;47.590;8.300;2023-06-14T10:46:36;21.00;46.70
30594;DHT22;33199;47.590;8.300;2023-06-14T10:49:01;21.00;46.70
30594;DHT22;33199;47.590;8.300;2023-06-14T10:51:29;21.00;46.80
30594;DHT22;33199;47.590;8.300;2023-06-14T10:53:56;21.00;46.80
30594;DHT22;33199;47.590;8.300;2023-06-14T10:56:28;21.00;46.80
30594;DHT22;33199;47.590;8.300;2023-06-14T10:58:54;21.00;46.80
30594;DHT22;33199;47.590;8.300;2023-06-14T11:01:38;21.00;46.80
30594;DHT22;33199;47.590;8.300;2023-06-14T11:04:07;21.00;46.80
30594;DHT22;33199;47.590;8.300;2023-06-14T11:06:41;21.00;46.80
30594;DHT22;33199;47.590;8.300;2023-06-14T11:11:44;21.10;46.80
30594;DHT22;33199;47.590;8.300;2023-06-14T11:14:11;21.10;46.90
30594;DHT22;33199;47.590;8.300;2023-06-14T11:16:36;21.10;46.90
30594;DHT22;33199;47.590;8.300;2023-06-14T11:19:02;21.10;46.90
30594;DHT22;33199;47.590;8.300;2023-06-14T11:21:34;21.10;46.90
30594;DHT22;33199;47.590;8.300;2023-06-14T11:23:59;21.10;46.90
30594;DHT22;33199;47.590;8.300;2023-06-14T11:26:28;21.10;46.90
30594;DHT22;33199;47.590;8.300;2023-06-14T11:28:58;21.10;46.90
30594;DHT22;33199;47.590;8.300;2023-06-14T11:31:24;21.10;46.90
30594;DHT22;33199;47.590;8.300;2023-06-14T11:33:50;21.20;46.90
30594;DHT22;33199;47.590;8.300;2023-06-14T11:36:16;21.20;47.00
30594;DHT22;33199;47.590;8.300;2023-06-14T11:38:42;21.20;47.00
30594;DHT22;33199;47.590;8.300;2023-06-14T11:41:07;21.20;46.90
30594;DHT22;33199;47.590;8.300;2023-06-14T11:43:33;21.20;47.00
30594;DHT22;33199;47.590;8.300;2023-06-14T11:46:00;21.20;47.00
30594;DHT22;33199;47.590;8.300;2023-06-14T11:48:41;21.20;47.10
30594;DHT22;33199;47.590;8.300;2023-06-14T11:51:07;21.20;47.00
30594;DHT22;33199;47.590;8.300;2023-06-14T11:53:32;21.20;47.00
30594;DHT22;33199;47.590;8.300;2023-06-14T11:55:58;21.30;47.00
30594;DHT22;33199;47.590;8.300;2023-06-14T11:58:25;21.30;47.00
30594;DHT22;33199;47.590;8.300;2023-06-14T12:00:50;21.30;47.00
30594;DHT22;33199;47.590;8.300;2023-06-14T12:03:16;21.30;47.10
30594;DHT22;33199;47.590;8.300;2023-06-14T12:05:41;21.30;47.10
30594;DHT22;33199;47.590;8.300;2023-06-14T12:08:09;21.30;47.10
30594;DHT22;33199;47.590;8.300;2023-06-14T12:10:41;21.30;47.10
30594;DHT22;33199;47.590;8.300;2023-06-14T12:13:08;21.30;47.20
30594;DHT22;33199;47.590;8.300;2023-06-14T12:15:34;21.30;47.20
30594;DHT22;33199;47.590;8.300;2023-06-14T12:18:00;21.30;47.20
30594;DHT22;33199;47.590;8.300;2023-06-14T12:20:29;21.40;47.20
30594;DHT22;33199;47.590;8.300;2023-06-14T12:22:57;21.40;47.30
30594;DHT22;33199;47.590;8.300;2023-06-14T12:25:24;21.40;47.40
30594;DHT22;33199;47.590;8.300;2023-06-14T12:27:53;21.40;47.30
30594;DHT22;33199;47.590;8.300;2023-06-14T12:30:18;21.40;47.30
30594;DHT22;33199;47.590;8.300;2023-06-14T12:32:44;21.40;47.50
30594;DHT22;33199;47.590;8.300;2023-06-14T12:35:10;21.40;47.50
30594;DHT22;33199;47.590;8.300;2023-06-14T12:37:36;21.40;47.50
30594;DHT22;33199;47.590;8.300;2023-06-14T12:40:01;21.50;47.60
30594;DHT22;33199;47.590;8.300;2023-06-14T12:42:31;21.50;47.50
30594;DHT22;33199;47.590;8.300;2023-06-14T12:44:56;21.50;47.40
30594;DHT22;33199;47.590;8.300;2023-06-14T12:47:22;21.50;47.60
30594;DHT22;33199;47.590;8.300;2023-06-14T12:49:47;21.50;47.70
30594;DHT22;33199;47.590;8.300;2023-06-14T12:52:13;21.50;47.60
30594;DHT22;33199;47.590;8.300;2023-06-14T12:54:38;21.50;47.60
30594;DHT22;33199;47.590;8.300;2023-06-14T12:57:05;21.50;47.70
30594;DHT22;33199;47.590;8.300;2023-06-14T12:59:31;21.60;47.70
30594;DHT22;33199;47.590;8.300;2023-06-14T13:02:19;21.60;47.70
30594;DHT22;33199;47.590;8.300;2023-06-14T13:04:44;21.60;47.70
30594;DHT22;33199;47.590;8.300;2023-06-14T13:07:10;21.60;47.60
30594;DHT22;33199;47.590;8.300;2023-06-14T13:09:40;21.60;47.70
30594;DHT22;33199;47.590;8.300;2023-06-14T13:12:06;21.60;47.60
30594;DHT22;33199;47.590;8.300;2023-06-14T13:14:32;21.60;47.30
30594;DHT22;33199;47.590;8.300;2023-06-14T13:16:57;21.60;47.40
30594;DHT22;33199;47.590;8.300;2023-06-14T13:19:23;21.70;47.80
30594;DHT22;33199;47.590;8.300;2023-06-14T13:21:48;21.70;47.60
30594;DHT22;33199;47.590;8.300;2023-06-14T13:24:14;21.60;47.50
30594;DHT22;33199;47.590;8.300;2023-06-14T13:26:39;21.70;47.60
30594;DHT22;33199;47.590;8.300;2023-06-14T13:29:05;21.70;47.50
30594;DHT22;33199;47.590;8.300;2023-06-14T13:31:30;21.70;47.50
30594;DHT22;33199;47.590;8.300;2023-06-14T13:33:56;21.70;47.60
30594;DHT22;33199;47.590;8.300;2023-06-14T13:36:21;21.70;47.70
30594;DHT22;33199;47.590;8.300;2023-06-14T13:38:47;21.80;47.70
30594;DHT22;33199;47.590;8.300;2023-06-14T13:41:13;21.80;47.70
30594;DHT22;33199;47.590;8.300;2023-06-14T13:43:38;21.80;47.60
30594;DHT22;33199;47.590;8.300;2023-06-14T13:46:04;21.80;47.60
30594;DHT22;33199;47.590;8.300;2023-06-14T13:48:29;21.80;47.50
30594;DHT22;33199;47.590;8.300;2023-06-14T13:50:55;21.80;47.50
30594;DHT22;33199;47.590;8.300;2023-06-14T13:53:20;21.90;47.50
30594;DHT22;33199;47.590;8.300;2023-06-14T13:55:46;21.90;47.80
30594;DHT22;33199;47.590;8.300;2023-06-14T13:58:11;21.90;47.80
30594;DHT22;33199;47.590;8.300;2023-06-14T14:00:37;21.90;47.60
30594;DHT22;33199;47.590;8.300;2023-06-14T14:03:05;21.90;47.60
30594;DHT22;33199;47.590;8.300;2023-06-14T14:05:31;21.90;47.60
30594;DHT22;33199;47.590;8.300;2023-06-14T14:07:56;21.90;47.60
30594;DHT22;33199;47.590;8.300;2023-06-14T14:10:23;21.90;47.70
30594;DHT22;33199;47.590;8.300;2023-06-14T14:12:50;21.90;47.70
30594;DHT22;33199;47.590;8.300;2023-06-14T14:15:16;21.90;47.60
30594;DHT22;33199;47.590;8.300;2023-06-14T14:17:41;22.00;47.60
30594;DHT22;33199;47.590;8.300;2023-06-14T14:20:07;22.00;47.60
30594;DHT22;33199;47.590;8.300;2023-06-14T14:22:33;22.00;47.70
30594;DHT22;33199;47.590;8.300;2023-06-14T14:24:58;22.00;47.70
30594;DHT22;33199;47.590;8.300;2023-06-14T14:27:24;22.00;47.70
30594;DHT22;33199;47.590;8.300;2023-06-14T14:29:49;22.00;47.70
30594;DHT22;33199;47.590;8.300;2023-06-14T14:32:15;22.00;47.60
30594;DHT22;33199;47.590;8.300;2023-06-14T14:34:40;22.00;47.60
30594;DHT22;33199;47.590;8.300;2023-06-14T14:37:06;22.00;47.60
30594;DHT22;33199;47.590;8.300;2023-06-14T14:39:32;22.00;47.60
30594;DHT22;33199;47.590;8.300;2023-06-14T14:41:57;22.10;47.60
30594;DHT22;33199;47.590;8.300;2023-06-14T14:44:22;22.00;47.60
30594;DHT22;33199;47.590;8.300;2023-06-14T14:46:48;22.10;47.70
30594;DHT22;33199;47.590;8.300;2023-06-14T14:49:13;22.10;47.60
30594;DHT22;33199;47.590;8.300;2023-06-14T14:51:39;22.10;47.70
30594;DHT22;33199;47.590;8.300;2023-06-14T14:54:05;22.10;47.60
30594;DHT22;33199;47.590;8.300;2023-06-14T14:56:31;22.10;47.70
30594;DHT22;33199;47.590;8.300;2023-06-14T14:58:56;22.10;47.60
30594;DHT22;33199;47.590;8.300;2023-06-14T15:01:22;22.10;47.60
30594;DHT22;33199;47.590;8.300;2023-06-14T15:03:48;22.10;47.60
30594;DHT22;33199;47.590;8.300;2023-06-14T15:06:13;22.10;47.70
30594;DHT22;33199;47.590;8.300;2023-06-14T15:08:39;22.10;47.70
30594;DHT22;33199;47.590;8.300;2023-06-14T15:11:04;22.20;47.80
30594;DHT22;33199;47.590;8.300;2023-06-14T15:13:30;22.20;47.80
30594;DHT22;33199;47.590;8.300;2023-06-14T15:15:55;22.20;47.90
30594;DHT22;33199;47.590;8.300;2023-06-14T15:18:21;22.20;48.00
30594;DHT22;33199;47.590;8.300;2023-06-14T15:20:47;22.20;48.00
30594;DHT22;33199;47.590;8.300;2023-06-14T15:23:12;22.20;47.80
30594;DHT22;33199;47.590;8.300;2023-06-14T15:25:45;22.20;47.80
30594;DHT22;33199;47.590;8.300;2023-06-14T15:28:10;22.20;47.80
30594;DHT22;33199;47.590;8.300;2023-06-14T15:30:36;22.20;47.80